sensor_id;sensor_type;location;lat;lon;timestamp;temperature;humidity
23783;DHT22;12071;50.850;4.446;2023-12-07T00:01:00;4.60;1.00
23783;DHT22;12071;50.850;4.446;2023-12-07T00:03:26;4.50;1.00
23783;DHT22;12071;50.850;4.446;2023-12-07T00:05:51;4.40;1.00
23783;DHT22;12071;50.850;4.446;2023-12-07T00:08:18;4.10;1.00
23783;DHT22;12071;50.850;4.446;2023-12-07T00:10:44;4.00;1.00
23783;DHT22;12071;50.850;4.446;2023-12-07T00:13:10;4.00;1.00
23783;DHT22;12071;50.850;4.446;2023-12-07T00:15:35;4.00;1.00
23783;DHT22;12071;50.850;4.446;2023-12-07T00:18:01;4.00;1.00
23783;DHT22;12071;50.850;4.446;2023-12-07T00:20:29;4.20;1.00
23783;DHT22;12071;50.850;4.446;2023-12-07T00:22:54;4.20;1.00
23783;DHT22;12071;50.850;4.446;2023-12-07T00:25:21;4.30;1.00
23783;DHT22;12071;50.850;4.446;2023-12-07T00:27:48;4.10;1.00
23783;DHT22;12071;50.850;4.446;2023-12-07T00:30:13;4.10;1.00
23783;DHT22;12071;50.850;4.446;2023-12-07T00:32:39;4.20;1.00
23783;DHT22;12071;50.850;4.446;2023-12-07T00:35:11;4.50;1.00
23783;DHT22;12071;50.850;4.446;2023-12-07T00:37:37;4.70;1.00
23783;DHT22;12071;50.850;4.446;2023-12-07T00:40:03;4.70;1.00
23783;DHT22;12071;50.850;4.446;2023-12-07T00:42:30;4.70;1.00
23783;DHT22;12071;50.850;4.446;2023-12-07T00:44:56;4.60;1.00
23783;DHT22;12071;50.850;4.446;2023-12-07T00:47:21;4.60;1.00
23783;DHT22;12071;50.850;4.446;2023-12-07T00:49:47;4.40;1.00
23783;DHT22;12071;50.850;4.446;2023-12-07T00:52:13;4.60;1.00
23783;DHT22;12071;50.850;4.446;2023-12-07T00:54:39;4.60;1.00
23783;DHT22;12071;50.850;4.446;2023-12-07T00:57:05;4.50;1.00
23783;DHT22;12071;50.850;4.446;2023-12-07T00:59:32;4.50;1.00
23783;DHT22;12071;50.850;4.446;2023-12-07T01:02:06;4.50;1.00
23783;DHT22;12071;50.850;4.446;2023-12-07T01:04:33;4.50;1.00
23783;DHT22;12071;50.850;4.446;2023-12-07T01:06:59;4.60;1.00
23783;DHT22;12071;50.850;4.446;2023-12-07T01:09:25;4.70;1.00
23783;DHT22;12071;50.850;4.446;2023-12-07T01:11:51;4.70;1.00
23783;DHT22;12071;50.850;4.446;2023-12-07T01:14:17;4.70;1.00
23783;DHT22;12071;50.850;4.446;2023-12-07T01:16:44;4.40;1.00
23783;DHT22;12071;50.850;4.446;2023-12-07T01:19:10;4.70;1.00
23783;DHT22;12071;50.850;4.446;2023-12-07T01:21:42;4.70;1.00
23783;DHT22;12071;50.850;4.446;2023-12-07T01:24:08;4.80;1.00
23783;DHT22;12071;50.850;4.446;2023-12-07T01:26:34;5.00;1.00
23783;DHT22;12071;50.850;4.446;2023-12-07T01:29:00;4.90;1.00
23783;DHT22;12071;50.850;4.446;2023-12-07T01:31:26;4.50;1.00
23783;DHT22;12071;50.850;4.446;2023-12-07T01:33:52;4.60;1.00
23783;DHT22;12071;50.850;4.446;2023-12-07T01:36:17;4.60;1.00
23783;DHT22;12071;50.850;4.446;2023-12-07T01:38:43;4.70;1.00
23783;DHT22;12071;50.850;4.446;2023-12-07T01:41:12;4.80;1.00
23783;DHT22;12071;50.850;4.446;2023-12-07T01:43:38;4.60;1.00
23783;DHT22;12071;50.850;4.446;2023-12-07T01:46:10;4.80;1.00
23783;DHT22;12071;50.850;4.446;2023-12-07T01:48:35;4.90;1.00
23783;DHT22;12071;50.850;4.446;2023-12-07T01:51:01;4.60;1.00
23783;DHT22;12071;50.850;4.446;2023-12-07T01:53:28;4.50;1.00
23783;DHT22;12071;50.850;4.446;2023-12-07T01:55:54;4.60;1.00
23783;DHT22;12071;50.850;4.446;2023-12-07T01:58:20;4.60;1.00
23783;DHT22;12071;50.850;4.446;2023-12-07T02:00:47;4.70;1.00
23783;DHT22;12071;50.850;4.446;2023-12-07T02:03:13;4.70;1.00
23783;DHT22;12071;50.850;4.446;2023-12-07T02:05:46;4.70;1.00
23783;DHT22;12071;50.850;4.446;2023-12-07T02:08:12;4.80;1.00
23783;DHT22;12071;50.850;4.446;2023-12-07T02:10:38;4.60;1.00
23783;DHT22;12071;50.850;4.446;2023-12-07T02:13:05;4.60;1.00
23783;DHT22;12071;50.850;4.446;2023-12-07T02:15:31;4.70;1.00
23783;DHT22;12071;50.850;4.446;2023-12-07T02:18:10;4.30;1.00
23783;DHT22;12071;50.850;4.446;2023-12-07T02:20:43;4.40;1.00
23783;DHT22;12071;50.850;4.446;2023-12-07T02:23:12;4.30;1.00
23783;DHT22;12071;50.850;4.446;2023-12-07T02:26:02;4.30;1.00
23783;DHT22;12071;50.850;4.446;2023-12-07T02:28:28;4.40;1.00
23783;DHT22;12071;50.850;4.446;2023-12-07T02:30:54;4.30;1.00
23783;DHT22;12071;50.850;4.446;2023-12-07T02:33:20;4.30;1.00
23783;DHT22;12071;50.850;4.446;2023-12-07T02:35:46;4.20;1.00
23783;DHT22;12071;50.850;4.446;2023-12-07T02:38:12;4.30;1.00
23783;DHT22;12071;50.850;4.446;2023-12-07T02:40:38;4.50;1.00
23783;DHT22;12071;50.850;4.446;2023-12-07T02:43:06;4.50;1.00
23783;DHT22;12071;50.850;4.446;2023-12-07T02:45:33;4.70;1.00
23783;DHT22;12071;50.850;4.446;2023-12-07T02:47:59;4.80;1.00
23783;DHT22;12071;50.850;4.446;2023-12-07T02:50:25;4.80;1.00
23783;DHT22;12071;50.850;4.446;2023-12-07T02:52:50;4.90;1.00
23783;DHT22;12071;50.850;4.446;2023-12-07T02:55:16;4.90;1.00
23783;DHT22;12071;50.850;4.446;2023-12-07T02:57:42;4.70;1.00
23783;DHT22;12071;50.850;4.446;2023-12-07T03:00:09;4.70;1.00
23783;DHT22;12071;50.850;4.446;2023-12-07T03:02:36;4.60;1.00
23783;DHT22;12071;50.850;4.446;2023-12-07T03:05:02;4.80;1.00
23783;DHT22;12071;50.850;4.446;2023-12-07T03:07:29;4.90;1.00
23783;DHT22;12071;50.850;4.446;2023-12-07T03:09:55;4.70;1.00
23783;DHT22;12071;50.850;4.446;2023-12-07T03:12:20;4.80;1.00
23783;DHT22;12071;50.850;4.446;2023-12-07T03:14:46;4.80;1.00
23783;DHT22;12071;50.850;4.446;2023-12-07T03:17:12;4.80;1.00
23783;DHT22;12071;50.850;4.446;2023-12-07T03:19:39;4.70;1.00
23783;DHT22;12071;50.850;4.446;2023-12-07T03:22:05;4.90;1.00
23783;DHT22;12071;50.850;4.446;2023-12-07T03:24:32;5.00;1.00
23783;DHT22;12071;50.850;4.446;2023-12-07T03:26:58;5.20;1.00
23783;DHT22;12071;50.850;4.446;2023-12-07T03:29:24;5.20;1.00
23783;DHT22;12071;50.850;4.446;2023-12-07T03:31:49;5.10;1.00
23783;DHT22;12071;50.850;4.446;2023-12-07T03:34:15;5.00;1.00
23783;DHT22;12071;50.850;4.446;2023-12-07T03:36:45;5.10;1.00
23783;DHT22;12071;50.850;4.446;2023-12-07T03:39:10;5.20;1.00
23783;DHT22;12071;50.850;4.446;2023-12-07T03:41:36;5.30;1.00
23783;DHT22;12071;50.850;4.446;2023-12-07T03:44:02;5.50;1.00
23783;DHT22;12071;50.850;4.446;2023-12-07T03:46:27;5.20;1.00
23783;DHT22;12071;50.850;4.446;2023-12-07T03:48:53;5.00;1.00
23783;DHT22;12071;50.850;4.446;2023-12-07T03:51:19;5.00;1.00
23783;DHT22;12071;50.850;4.446;2023-12-07T03:53:44;5.00;1.00
23783;DHT22;12071;50.850;4.446;2023-12-07T03:56:10;5.00;1.00
23783;DHT22;12071;50.850;4.446;2023-12-07T03:58:39;5.00;1.00
23783;DHT22;12071;50.850;4.446;2023-12-07T04:01:05;5.00;1.00
23783;DHT22;12071;50.850;4.446;2023-12-07T04:03:31;5.10;1.00
23783;DHT22;12071;50.850;4.446;2023-12-07T04:05:56;5.20;1.00
23783;DHT22;12071;50.850;4.446;2023-12-07T04:08:22;5.10;1.00
23783;DHT22;12071;50.850;4.446;2023-12-07T04:10:48;5.20;1.00
23783;DHT22;12071;50.850;4.446;2023-12-07T04:13:13;5.40;1.00
23783;DHT22;12071;50.850;4.446;2023-12-07T04:15:39;5.50;1.00
23783;DHT22;12071;50.850;4.446;2023-12-07T04:18:05;5.30;1.00
23783;DHT22;12071;50.850;4.446;2023-12-07T04:20:30;5.30;1.00
23783;DHT22;12071;50.850;4.446;2023-12-07T04:22:56;5.30;1.00
23783;DHT22;12071;50.850;4.446;2023-12-07T04:25:22;5.40;1.00
23783;DHT22;12071;50.850;4.446;2023-12-07T04:27:48;5.50;1.00
23783;DHT22;12071;50.850;4.446;2023-12-07T04:30:13;5.10;1.00
23783;DHT22;12071;50.850;4.446;2023-12-07T04:32:39;5.20;1.00
23783;DHT22;12071;50.850;4.446;2023-12-07T04:35:05;5.00;1.00
23783;DHT22;12071;50.850;4.446;2023-12-07T04:37:32;5.00;1.00
23783;DHT22;12071;50.850;4.446;2023-12-07T04:39:57;4.90;1.00
23783;DHT22;12071;50.850;4.446;2023-12-07T04:42:24;5.00;1.00
23783;DHT22;12071;50.850;4.446;2023-12-07T04:44:49;5.00;1.00
23783;DHT22;12071;50.850;4.446;2023-12-07T04:47:15;5.00;1.00
23783;DHT22;12071;50.850;4.446;2023-12-07T04:49:41;5.00;1.00
23783;DHT22;12071;50.850;4.446;2023-12-07T04:52:06;5.00;1.00
23783;DHT22;12071;50.850;4.446;2023-12-07T04:54:32;5.00;1.00
23783;DHT22;12071;50.850;4.446;2023-12-07T04:56:58;4.70;1.00
23783;DHT22;12071;50.850;4.446;2023-12-07T04:59:24;4.80;1.00
23783;DHT22;12071;50.850;4.446;2023-12-07T05:01:50;5.00;1.00
23783;DHT22;12071;50.850;4.446;2023-12-07T05:04:16;5.00;1.00
23783;DHT22;12071;50.850;4.446;2023-12-07T05:06:41;4.80;1.00
23783;DHT22;12071;50.850;4.446;2023-12-07T05:09:07;4.90;1.00
23783;DHT22;12071;50.850;4.446;2023-12-07T05:11:36;4.80;1.00
23783;DHT22;12071;50.850;4.446;2023-12-07T05:14:03;4.70;1.00
23783;DHT22;12071;50.850;4.446;2023-12-07T05:16:29;4.70;1.00
23783;DHT22;12071;50.850;4.446;2023-12-07T05:18:55;4.70;1.00
23783;DHT22;12071;50.850;4.446;2023-12-07T05:21:21;4.50;1.00
23783;DHT22;12071;50.850;4.446;2023-12-07T05:23:47;4.60;1.00
23783;DHT22;12071;50.850;4.446;2023-12-07T05:26:12;4.60;1.00
23783;DHT22;12071;50.850;4.446;2023-12-07T05:28:38;4.60;1.00
23783;DHT22;12071;50.850;4.446;2023-12-07T05:31:04;4.70;1.00
23783;DHT22;12071;50.850;4.446;2023-12-07T05:33:30;4.70;1.00
23783;DHT22;12071;50.850;4.446;2023-12-07T05:35:55;4.70;1.00
23783;DHT22;12071;50.850;4.446;2023-12-07T05:38:21;4.60;1.00
23783;DHT22;12071;50.850;4.446;2023-12-07T05:40:47;4.60;1.00
23783;DHT22;12071;50.850;4.446;2023-12-07T05:43:12;4.70;1.00
23783;DHT22;12071;50.850;4.446;2023-12-07T05:45:38;4.70;1.00
23783;DHT22;12071;50.850;4.446;2023-12-07T05:48:04;4.60;1.00
23783;DHT22;12071;50.850;4.446;2023-12-07T05:50:30;4.60;1.00
23783;DHT22;12071;50.850;4.446;2023-12-07T05:52:55;4.70;1.00
23783;DHT22;12071;50.850;4.446;2023-12-07T05:55:21;4.50;1.00
23783;DHT22;12071;50.850;4.446;2023-12-07T05:57:47;4.50;1.00
23783;DHT22;12071;50.850;4.446;2023-12-07T06:00:13;4.40;1.00
23783;DHT22;12071;50.850;4.446;2023-12-07T06:02:38;4.50;1.00
23783;DHT22;12071;50.850;4.446;2023-12-07T06:05:05;4.60;1.00
23783;DHT22;12071;50.850;4.446;2023-12-07T06:07:30;4.60;1.00
23783;DHT22;12071;50.850;4.446;2023-12-07T06:09:56;4.70;1.00
23783;DHT22;12071;50.850;4.446;2023-12-07T06:12:22;4.60;1.00
23783;DHT22;12071;50.850;4.446;2023-12-07T06:14:48;4.50;1.00
23783;DHT22;12071;50.850;4.446;2023-12-07T06:17:14;4.50;1.00
23783;DHT22;12071;50.850;4.446;2023-12-07T06:19:40;4.40;1.00
23783;DHT22;12071;50.850;4.446;2023-12-07T06:22:05;4.40;1.00
23783;DHT22;12071;50.850;4.446;2023-12-07T06:24:31;4.50;1.00
23783;DHT22;12071;50.850;4.446;2023-12-07T06:26:58;4.50;1.00
23783;DHT22;12071;50.850;4.446;2023-12-07T06:29:24;4.60;1.00
23783;DHT22;12071;50.850;4.446;2023-12-07T06:31:50;4.70;1.00
23783;DHT22;12071;50.850;4.446;2023-12-07T06:34:16;4.70;1.00
23783;DHT22;12071;50.850;4.446;2023-12-07T06:36:42;4.70;1.00
23783;DHT22;12071;50.850;4.446;2023-12-07T06:39:07;4.60;1.00
23783;DHT22;12071;50.850;4.446;2023-12-07T06:41:33;4.70;1.00
23783;DHT22;12071;50.850;4.446;2023-12-07T06:44:00;4.60;1.00
23783;DHT22;12071;50.850;4.446;2023-12-07T06:46:28;4.60;1.00
23783;DHT22;12071;50.850;4.446;2023-12-07T06:49:01;4.70;1.00
23783;DHT22;12071;50.850;4.446;2023-12-07T06:51:27;4.80;1.00
23783;DHT22;12071;50.850;4.446;2023-12-07T06:53:52;4.60;1.00
23783;DHT22;12071;50.850;4.446;2023-12-07T06:56:18;4.40;1.00
23783;DHT22;12071;50.850;4.446;2023-12-07T06:58:45;4.40;1.00
23783;DHT22;12071;50.850;4.446;2023-12-07T07:01:10;4.40;1.00
23783;DHT22;12071;50.850;4.446;2023-12-07T07:03:36;4.40;1.00
23783;DHT22;12071;50.850;4.446;2023-12-07T07:06:04;4.40;1.00
23783;DHT22;12071;50.850;4.446;2023-12-07T07:08:30;4.50;1.00
23783;DHT22;12071;50.850;4.446;2023-12-07T07:10:56;4.50;1.00
23783;DHT22;12071;50.850;4.446;2023-12-07T07:13:22;4.60;1.00
23783;DHT22;12071;50.850;4.446;2023-12-07T07:15:48;4.60;1.00
23783;DHT22;12071;50.850;4.446;2023-12-07T07:18:14;4.40;1.00
23783;DHT22;12071;50.850;4.446;2023-12-07T07:20:40;4.40;1.00
23783;DHT22;12071;50.850;4.446;2023-12-07T07:23:06;4.40;1.00
23783;DHT22;12071;50.850;4.446;2023-12-07T07:25:33;4.30;1.00
23783;DHT22;12071;50.850;4.446;2023-12-07T07:28:00;4.40;1.00
23783;DHT22;12071;50.850;4.446;2023-12-07T07:30:25;4.40;1.00
23783;DHT22;12071;50.850;4.446;2023-12-07T07:32:52;4.40;1.00
23783;DHT22;12071;50.850;4.446;2023-12-07T07:35:18;4.40;1.00
23783;DHT22;12071;50.850;4.446;2023-12-07T07:37:44;4.20;1.00
23783;DHT22;12071;50.850;4.446;2023-12-07T07:40:10;4.20;1.00
23783;DHT22;12071;50.850;4.446;2023-12-07T07:42:40;4.20;1.00
23783;DHT22;12071;50.850;4.446;2023-12-07T07:45:07;4.20;1.00
23783;DHT22;12071;50.850;4.446;2023-12-07T07:47:33;4.10;1.00
23783;DHT22;12071;50.850;4.446;2023-12-07T07:49:59;3.90;1.00
23783;DHT22;12071;50.850;4.446;2023-12-07T07:52:24;4.30;1.00
23783;DHT22;12071;50.850;4.446;2023-12-07T07:54:50;4.50;1.00
23783;DHT22;12071;50.850;4.446;2023-12-07T07:57:16;4.50;1.00
23783;DHT22;12071;50.850;4.446;2023-12-07T07:59:41;4.60;1.00
23783;DHT22;12071;50.850;4.446;2023-12-07T08:02:07;4.30;1.00
23783;DHT22;12071;50.850;4.446;2023-12-07T08:04:33;4.20;1.00
23783;DHT22;12071;50.850;4.446;2023-12-07T08:06:58;4.60;1.00
23783;DHT22;12071;50.850;4.446;2023-12-07T08:09:24;4.50;1.00
23783;DHT22;12071;50.850;4.446;2023-12-07T08:11:49;4.50;1.00
23783;DHT22;12071;50.850;4.446;2023-12-07T08:14:15;4.60;1.00
23783;DHT22;12071;50.850;4.446;2023-12-07T08:16:47;4.60;1.00
23783;DHT22;12071;50.850;4.446;2023-12-07T08:19:13;4.70;1.00
23783;DHT22;12071;50.850;4.446;2023-12-07T08:21:39;4.80;1.00
23783;DHT22;12071;50.850;4.446;2023-12-07T08:24:05;4.90;1.00
23783;DHT22;12071;50.850;4.446;2023-12-07T08:26:34;4.90;1.00
23783;DHT22;12071;50.850;4.446;2023-12-07T08:28:59;4.60;1.00
23783;DHT22;12071;50.850;4.446;2023-12-07T08:31:25;4.70;1.00
23783;DHT22;12071;50.850;4.446;2023-12-07T08:33:51;4.70;1.00
23783;DHT22;12071;50.850;4.446;2023-12-07T08:36:17;4.80;1.00
23783;DHT22;12071;50.850;4.446;2023-12-07T08:38:43;4.90;1.00
23783;DHT22;12071;50.850;4.446;2023-12-07T08:41:09;4.80;1.00
23783;DHT22;12071;50.850;4.446;2023-12-07T08:43:35;4.90;1.00
23783;DHT22;12071;50.850;4.446;2023-12-07T08:46:00;5.00;1.00
23783;DHT22;12071;50.850;4.446;2023-12-07T08:48:26;5.00;1.00
23783;DHT22;12071;50.850;4.446;2023-12-07T08:50:51;5.00;1.00
23783;DHT22;12071;50.850;4.446;2023-12-07T08:53:18;5.10;1.00
23783;DHT22;12071;50.850;4.446;2023-12-07T08:55:44;5.20;1.00
23783;DHT22;12071;50.850;4.446;2023-12-07T08:58:09;5.30;1.00
23783;DHT22;12071;50.850;4.446;2023-12-07T09:00:37;5.30;1.00
23783;DHT22;12071;50.850;4.446;2023-12-07T09:03:03;5.20;1.00
23783;DHT22;12071;50.850;4.446;2023-12-07T09:05:29;5.20;1.00
23783;DHT22;12071;50.850;4.446;2023-12-07T09:07:58;5.30;1.00
23783;DHT22;12071;50.850;4.446;2023-12-07T09:10:26;5.30;1.00
23783;DHT22;12071;50.850;4.446;2023-12-07T09:12:53;5.40;1.00
23783;DHT22;12071;50.850;4.446;2023-12-07T09:15:18;5.50;1.00
23783;DHT22;12071;50.850;4.446;2023-12-07T09:17:44;5.50;1.00
23783;DHT22;12071;50.850;4.446;2023-12-07T09:20:11;5.30;1.00
23783;DHT22;12071;50.850;4.446;2023-12-07T09:22:48;5.40;1.00
23783;DHT22;12071;50.850;4.446;2023-12-07T09:25:15;5.60;1.00
23783;DHT22;12071;50.850;4.446;2023-12-07T09:27:41;5.60;1.00
23783;DHT22;12071;50.850;4.446;2023-12-07T09:30:09;5.60;1.00
23783;DHT22;12071;50.850;4.446;2023-12-07T09:32:42;5.60;1.00
23783;DHT22;12071;50.850;4.446;2023-12-07T09:35:09;5.70;1.00
23783;DHT22;12071;50.850;4.446;2023-12-07T09:37:44;5.60;1.00
23783;DHT22;12071;50.850;4.446;2023-12-07T09:40:18;5.60;1.00
23783;DHT22;12071;50.850;4.446;2023-12-07T09:42:45;5.70;1.00
23783;DHT22;12071;50.850;4.446;2023-12-07T09:45:12;5.80;1.00
23783;DHT22;12071;50.850;4.446;2023-12-07T09:47:40;5.70;1.00
23783;DHT22;12071;50.850;4.446;2023-12-07T09:50:11;5.80;1.00
23783;DHT22;12071;50.850;4.446;2023-12-07T09:53:07;5.70;1.00
23783;DHT22;12071;50.850;4.446;2023-12-07T09:55:33;5.80;1.00
23783;DHT22;12071;50.850;4.446;2023-12-07T09:57:59;5.70;1.00
23783;DHT22;12071;50.850;4.446;2023-12-07T10:00:24;5.90;1.00
23783;DHT22;12071;50.850;4.446;2023-12-07T10:02:57;6.10;1.00
23783;DHT22;12071;50.850;4.446;2023-12-07T10:05:46;6.30;99.90
23783;DHT22;12071;50.850;4.446;2023-12-07T10:08:34;6.20;99.90
23783;DHT22;12071;50.850;4.446;2023-12-07T10:11:07;6.30;99.90
23783;DHT22;12071;50.850;4.446;2023-12-07T10:13:35;6.50;99.90
23783;DHT22;12071;50.850;4.446;2023-12-07T10:16:15;6.40;99.90
23783;DHT22;12071;50.850;4.446;2023-12-07T10:18:41;6.60;99.90
23783;DHT22;12071;50.850;4.446;2023-12-07T10:21:08;6.50;99.90
23783;DHT22;12071;50.850;4.446;2023-12-07T10:23:38;6.60;99.90
23783;DHT22;12071;50.850;4.446;2023-12-07T10:26:06;6.60;99.90
23783;DHT22;12071;50.850;4.446;2023-12-07T10:28:36;6.80;99.90
23783;DHT22;12071;50.850;4.446;2023-12-07T10:31:02;6.70;99.90
23783;DHT22;12071;50.850;4.446;2023-12-07T10:33:29;6.70;99.90
23783;DHT22;12071;50.850;4.446;2023-12-07T10:35:55;6.60;99.90
23783;DHT22;12071;50.850;4.446;2023-12-07T10:38:22;6.60;99.90
23783;DHT22;12071;50.850;4.446;2023-12-07T10:41:06;6.80;99.90
23783;DHT22;12071;50.850;4.446;2023-12-07T10:43:37;6.80;99.90
23783;DHT22;12071;50.850;4.446;2023-12-07T10:46:05;6.70;99.90
23783;DHT22;12071;50.850;4.446;2023-12-07T10:48:32;6.90;99.90
23783;DHT22;12071;50.850;4.446;2023-12-07T10:51:00;6.90;99.90
23783;DHT22;12071;50.850;4.446;2023-12-07T10:53:32;6.70;99.90
23783;DHT22;12071;50.850;4.446;2023-12-07T10:56:02;6.80;99.90
23783;DHT22;12071;50.850;4.446;2023-12-07T10:58:32;6.70;99.90
23783;DHT22;12071;50.850;4.446;2023-12-07T11:01:00;6.70;99.90
23783;DHT22;12071;50.850;4.446;2023-12-07T11:03:27;6.80;99.90
23783;DHT22;12071;50.850;4.446;2023-12-07T11:05:55;7.00;99.90
23783;DHT22;12071;50.850;4.446;2023-12-07T11:08:51;7.00;99.90
23783;DHT22;12071;50.850;4.446;2023-12-07T11:13:52;7.10;99.90
23783;DHT22;12071;50.850;4.446;2023-12-07T11:16:29;7.30;99.90
23783;DHT22;12071;50.850;4.446;2023-12-07T11:18:55;7.20;99.90
23783;DHT22;12071;50.850;4.446;2023-12-07T11:21:22;7.30;99.90
23783;DHT22;12071;50.850;4.446;2023-12-07T11:23:48;7.30;99.90
23783;DHT22;12071;50.850;4.446;2023-12-07T11:26:14;7.40;99.90
23783;DHT22;12071;50.850;4.446;2023-12-07T11:28:40;7.50;99.90
23783;DHT22;12071;50.850;4.446;2023-12-07T11:31:07;7.60;26.40
23783;DHT22;12071;50.850;4.446;2023-12-07T11:33:37;7.60;45.40
23783;DHT22;12071;50.850;4.446;2023-12-07T11:36:06;7.60;46.00
23783;DHT22;12071;50.850;4.446;2023-12-07T11:38:32;7.50;48.40
23783;DHT22;12071;50.850;4.446;2023-12-07T11:40:58;7.60;86.00
23783;DHT22;12071;50.850;4.446;2023-12-07T11:46:01;7.70;51.70
23783;DHT22;12071;50.850;4.446;2023-12-07T11:48:27;7.70;1.00
23783;DHT22;12071;50.850;4.446;2023-12-07T11:51:06;7.70;1.00
23783;DHT22;12071;50.850;4.446;2023-12-07T11:53:36;7.70;1.00
23783;DHT22;12071;50.850;4.446;2023-12-07T11:56:06;7.70;1.00
23783;DHT22;12071;50.850;4.446;2023-12-07T11:58:33;7.60;1.00
23783;DHT22;12071;50.850;4.446;2023-12-07T12:00:59;7.60;1.00
23783;DHT22;12071;50.850;4.446;2023-12-07T12:03:26;7.40;1.00
23783;DHT22;12071;50.850;4.446;2023-12-07T12:05:53;7.50;1.00
23783;DHT22;12071;50.850;4.446;2023-12-07T12:08:20;7.50;1.00
23783;DHT22;12071;50.850;4.446;2023-12-07T12:10:47;7.50;1.00
23783;DHT22;12071;50.850;4.446;2023-12-07T12:13:15;7.60;1.00
23783;DHT22;12071;50.850;4.446;2023-12-07T12:15:41;7.70;1.00
23783;DHT22;12071;50.850;4.446;2023-12-07T12:18:08;7.70;1.00
23783;DHT22;12071;50.850;4.446;2023-12-07T12:20:35;7.70;1.00
23783;DHT22;12071;50.850;4.446;2023-12-07T12:23:01;7.80;1.00
23783;DHT22;12071;50.850;4.446;2023-12-07T12:25:31;7.80;1.00
23783;DHT22;12071;50.850;4.446;2023-12-07T12:28:17;7.80;1.00
23783;DHT22;12071;50.850;4.446;2023-12-07T12:30:44;7.80;99.90
23783;DHT22;12071;50.850;4.446;2023-12-07T12:33:10;7.70;99.90
23783;DHT22;12071;50.850;4.446;2023-12-07T12:35:36;7.70;1.00
23783;DHT22;12071;50.850;4.446;2023-12-07T12:38:09;7.90;99.90
23783;DHT22;12071;50.850;4.446;2023-12-07T12:40:35;8.00;99.90
23783;DHT22;12071;50.850;4.446;2023-12-07T12:43:01;7.70;99.90
23783;DHT22;12071;50.850;4.446;2023-12-07T12:45:26;7.90;99.90
23783;DHT22;12071;50.850;4.446;2023-12-07T12:47:53;7.90;99.90
23783;DHT22;12071;50.850;4.446;2023-12-07T12:53:09;8.10;43.20
23783;DHT22;12071;50.850;4.446;2023-12-07T12:55:37;8.00;1.00
23783;DHT22;12071;50.850;4.446;2023-12-07T12:58:04;8.10;1.00
23783;DHT22;12071;50.850;4.446;2023-12-07T13:00:32;7.90;34.80
23783;DHT22;12071;50.850;4.446;2023-12-07T13:03:03;7.80;1.00
23783;DHT22;12071;50.850;4.446;2023-12-07T13:05:28;7.70;99.90
23783;DHT22;12071;50.850;4.446;2023-12-07T13:07:54;7.50;22.40
23783;DHT22;12071;50.850;4.446;2023-12-07T13:10:20;7.50;31.50
23783;DHT22;12071;50.850;4.446;2023-12-07T13:12:46;7.50;36.70
23783;DHT22;12071;50.850;4.446;2023-12-07T13:15:12;7.50;1.00
23783;DHT22;12071;50.850;4.446;2023-12-07T13:17:39;7.50;1.00
23783;DHT22;12071;50.850;4.446;2023-12-07T13:20:06;7.70;1.00
23783;DHT22;12071;50.850;4.446;2023-12-07T13:22:42;7.70;99.90
23783;DHT22;12071;50.850;4.446;2023-12-07T13:25:12;7.70;99.90
23783;DHT22;12071;50.850;4.446;2023-12-07T13:27:41;7.90;99.90
23783;DHT22;12071;50.850;4.446;2023-12-07T13:30:08;7.80;99.90
23783;DHT22;12071;50.850;4.446;2023-12-07T13:32:35;7.90;99.90
23783;DHT22;12071;50.850;4.446;2023-12-07T13:35:03;7.80;37.10
23783;DHT22;12071;50.850;4.446;2023-12-07T13:37:30;7.80;1.00
23783;DHT22;12071;50.850;4.446;2023-12-07T13:39:56;7.70;41.30
23783;DHT22;12071;50.850;4.446;2023-12-07T13:42:27;7.70;62.90
23783;DHT22;12071;50.850;4.446;2023-12-07T13:44:55;7.50;99.90
23783;DHT22;12071;50.850;4.446;2023-12-07T13:47:23;7.50;99.90
23783;DHT22;12071;50.850;4.446;2023-12-07T13:50:00;7.30;99.90
23783;DHT22;12071;50.850;4.446;2023-12-07T13:52:26;7.40;99.90
23783;DHT22;12071;50.850;4.446;2023-12-07T13:54:52;7.50;97.10
23783;DHT22;12071;50.850;4.446;2023-12-07T13:57:18;7.60;67.30
23783;DHT22;12071;50.850;4.446;2023-12-07T13:59:44;7.60;95.10
23783;DHT22;12071;50.850;4.446;2023-12-07T14:02:10;7.60;1.00
23783;DHT22;12071;50.850;4.446;2023-12-07T14:04:36;7.50;9.30
23783;DHT22;12071;50.850;4.446;2023-12-07T14:09:40;7.50;1.00
23783;DHT22;12071;50.850;4.446;2023-12-07T14:12:06;7.30;99.90
23783;DHT22;12071;50.850;4.446;2023-12-07T14:14:31;7.40;1.00
23783;DHT22;12071;50.850;4.446;2023-12-07T14:16:57;7.50;99.90
23783;DHT22;12071;50.850;4.446;2023-12-07T14:19:23;7.60;99.90
23783;DHT22;12071;50.850;4.446;2023-12-07T14:21:49;7.60;99.90
23783;DHT22;12071;50.850;4.446;2023-12-07T14:24:15;7.50;99.90
23783;DHT22;12071;50.850;4.446;2023-12-07T14:26:44;7.50;99.90
23783;DHT22;12071;50.850;4.446;2023-12-07T14:29:09;7.30;1.00
23783;DHT22;12071;50.850;4.446;2023-12-07T14:31:40;7.20;99.90
23783;DHT22;12071;50.850;4.446;2023-12-07T14:34:06;7.20;99.90
23783;DHT22;12071;50.850;4.446;2023-12-07T14:36:32;7.50;63.80
23783;DHT22;12071;50.850;4.446;2023-12-07T14:38:57;7.30;99.90
23783;DHT22;12071;50.850;4.446;2023-12-07T14:41:23;7.10;1.00
23783;DHT22;12071;50.850;4.446;2023-12-07T14:43:48;6.90;1.00
23783;DHT22;12071;50.850;4.446;2023-12-07T14:46:14;6.70;67.70
23783;DHT22;12071;50.850;4.446;2023-12-07T14:48:40;6.60;99.90
23783;DHT22;12071;50.850;4.446;2023-12-07T14:51:05;6.50;99.90
23783;DHT22;12071;50.850;4.446;2023-12-07T14:53:32;6.40;99.90
23783;DHT22;12071;50.850;4.446;2023-12-07T14:55:59;6.50;99.90
23783;DHT22;12071;50.850;4.446;2023-12-07T14:58:25;6.60;99.90
23783;DHT22;12071;50.850;4.446;2023-12-07T15:00:52;6.70;99.90
23783;DHT22;12071;50.850;4.446;2023-12-07T15:03:19;6.50;99.90
23783;DHT22;12071;50.850;4.446;2023-12-07T15:05:45;6.50;99.90
23783;DHT22;12071;50.850;4.446;2023-12-07T15:08:12;6.50;99.90
23783;DHT22;12071;50.850;4.446;2023-12-07T15:10:38;6.40;99.90
23783;DHT22;12071;50.850;4.446;2023-12-07T15:13:04;6.40;99.90
23783;DHT22;12071;50.850;4.446;2023-12-07T15:15:30;6.50;99.90
23783;DHT22;12071;50.850;4.446;2023-12-07T15:17:56;6.40;99.90
23783;DHT22;12071;50.850;4.446;2023-12-07T15:20:22;6.50;99.90
23783;DHT22;12071;50.850;4.446;2023-12-07T15:22:49;6.70;99.90
23783;DHT22;12071;50.850;4.446;2023-12-07T15:25:15;6.70;99.90
23783;DHT22;12071;50.850;4.446;2023-12-07T15:27:40;6.40;99.90
23783;DHT22;12071;50.850;4.446;2023-12-07T15:30:07;6.20;99.90
23783;DHT22;12071;50.850;4.446;2023-12-07T15:32:35;6.10;99.90
23783;DHT22;12071;50.850;4.446;2023-12-07T15:35:01;6.40;99.90
23783;DHT22;12071;50.850;4.446;2023-12-07T15:37:27;6.50;99.90
23783;DHT22;12071;50.850;4.446;2023-12-07T15:39:53;6.20;1.00
23783;DHT22;12071;50.850;4.446;2023-12-07T15:42:18;6.40;1.00
23783;DHT22;12071;50.850;4.446;2023-12-07T15:44:44;6.20;1.00
23783;DHT22;12071;50.850;4.446;2023-12-07T15:47:09;6.50;1.00
23783;DHT22;12071;50.850;4.446;2023-12-07T15:49:36;6.20;1.00
23783;DHT22;12071;50.850;4.446;2023-12-07T15:52:01;6.20;1.00
23783;DHT22;12071;50.850;4.446;2023-12-07T15:54:28;6.00;1.00
23783;DHT22;12071;50.850;4.446;2023-12-07T15:56:54;6.20;24.20
23783;DHT22;12071;50.850;4.446;2023-12-07T15:59:19;6.20;1.00
23783;DHT22;12071;50.850;4.446;2023-12-07T16:01:46;6.10;1.00
23783;DHT22;12071;50.850;4.446;2023-12-07T16:04:12;6.00;26.10
23783;DHT22;12071;50.850;4.446;2023-12-07T16:06:40;5.90;63.60